Portada
METAR-TAF:

METAR-TAF

Aeropuertos :

Aeropuerto Internacional Hato

Curazao, Antillas Neerlandesas

latitud: 12-12N, longitud: 068-58W, altitud: 9 m

Observación

El informe se hizo hace 18 minutos, a las 17:00 UTC
Viento 8 kt del este
Temperatura 30°C
Humedad 75%
Presión 1010 hPa
Visibilidad 10 km o más

METAR: TNCC 171700Z 08008KT 9999 NCD 30/25 Q1010 TEMPO 5000 SHRA BKN014TCU

Hora: 13:18 (17:18 UTC)

Pronóstico

El informe se hizo hace 7 horas y 18 minutos, a las 10:00 UTC
Pronóstico válido del 17 a las 12 UTC al 18 a las 12 UTC
Viento 10 kt del este
Visibilidad 10 km o más
Nubes dispersas a una altura de 2000 ft
Temporalmente
del 17 a las 12 UTC al 17 a las 14 UTC
Visibilidad: 7000 m
Cielo nuboso a una altura de 1500 ft
Escasas nubes a una altura de 1200 ft, Cumulonimbus.
chaparrones de lluvia

TAF: TNCC 171000Z 1712/1812 09010KT 9999 SCT020 TEMPO 1712/1714 7000 SHRA BKN015 FEW012CB

Observaciones y pronósticos meteorológicos de más de 4000 aeropuertos (mensajes METAR y TAF).

Los puntos amarillos y rojos representan las estaciones disponibles.

Ponga el ratón en el punto deseado para ver el nombre de la estación.

Haga clic para ver las observaciones y los pronósticos meteorológicos.

Para cambiar el mapa : haga clic en los botones verdes con una cruz de color negro para hacer un zoom, en el botón verde con un guión para alejar o en las flechas verdes para mapas adyacentes.


METAR-TAF: